createdAt,value
2022-12-06T00:00:38.167Z,101297.22
2022-12-06T00:03:01.784Z,101299.50
2022-12-06T00:05:25.400Z,101299.41
2022-12-06T00:07:50.174Z,101295.44
2022-12-06T00:10:14.034Z,101293.03
2022-12-06T00:12:37.587Z,101297.50
2022-12-06T00:15:02.618Z,101296.56
2022-12-06T00:17:26.143Z,101292.97
2022-12-06T00:19:49.692Z,101300.56
2022-12-06T00:22:13.239Z,101301.06
2022-12-06T00:24:37.007Z,101295.44
2022-12-06T00:27:00.556Z,101287.44
2022-12-06T00:29:25.354Z,101298.19
2022-12-06T00:31:51.370Z,101280.31
2022-12-06T00:34:15.098Z,101286.81
2022-12-06T00:36:41.131Z,101288.13
2022-12-06T00:39:07.738Z,101290.44
2022-12-06T00:41:31.326Z,101297.91
2022-12-06T00:43:55.510Z,101297.41
2022-12-06T00:46:21.429Z,101299.63
2022-12-06T00:48:46.943Z,101295.78
2022-12-06T00:51:10.533Z,101290.34
2022-12-06T00:53:34.114Z,101294.03
2022-12-06T00:55:57.704Z,101297.63
2022-12-06T00:58:21.198Z,101292.41
2022-12-06T01:00:45.045Z,101288.00
2022-12-06T01:03:09.114Z,101291.81
2022-12-06T01:05:34.347Z,101285.28
2022-12-06T01:07:58.257Z,101282.13
2022-12-06T01:10:21.923Z,101279.53
2022-12-06T01:12:45.653Z,101280.97
2022-12-06T01:15:10.947Z,101276.34
2022-12-06T01:17:35.496Z,101276.34
2022-12-06T01:19:59.300Z,101271.91
2022-12-06T01:22:24.548Z,101271.53
2022-12-06T01:24:49.066Z,101271.75
2022-12-06T01:27:12.588Z,101271.84
2022-12-06T01:29:36.266Z,101273.34
2022-12-06T01:31:59.864Z,101275.28
2022-12-06T01:34:23.413Z,101276.59
2022-12-06T01:36:47.164Z,101274.97
2022-12-06T01:39:12.792Z,101274.56
2022-12-06T01:41:36.340Z,101274.19
2022-12-06T01:44:00.285Z,101272.00
2022-12-06T01:46:32.172Z,101274.41
2022-12-06T01:49:16.696Z,101267.44
2022-12-06T01:51:44.815Z,101273.13
2022-12-06T01:54:13.248Z,101271.09
2022-12-06T01:56:37.852Z,101264.63
2022-12-06T01:59:01.960Z,101264.34
2022-12-06T02:01:27.217Z,101260.13
2022-12-06T02:03:50.848Z,101260.84
2022-12-06T02:06:14.507Z,101259.22
2022-12-06T02:08:39.248Z,101253.31
2022-12-06T02:11:05.766Z,101254.09
2022-12-06T02:13:29.724Z,101253.13
2022-12-06T02:16:02.164Z,101258.75
2022-12-06T02:18:36.251Z,101253.84
2022-12-06T02:21:11.937Z,101248.13
2022-12-06T02:24:07.994Z,101234.28
2022-12-06T02:26:40.957Z,101241.66
2022-12-06T02:29:59.818Z,101242.66
2022-12-06T02:32:32.454Z,101236.03
2022-12-06T02:35:03.970Z,101234.06
2022-12-06T02:37:34.911Z,101231.50
2022-12-06T02:40:05.759Z,101220.31
2022-12-06T02:42:36.589Z,101226.81
2022-12-06T02:45:03.502Z,101231.88
2022-12-06T02:47:35.414Z,101230.06
2022-12-06T02:50:00.778Z,101232.41
2022-12-06T02:52:28.387Z,101233.00
2022-12-06T02:54:56.178Z,101230.63
2022-12-06T02:57:21.194Z,101231.06
2022-12-06T02:59:53.848Z,101225.72
2022-12-06T03:02:17.734Z,101225.31
2022-12-06T03:04:54.139Z,101221.88
2022-12-06T03:07:38.371Z,101221.06
2022-12-06T03:10:33.127Z,101225.28
2022-12-06T03:13:07.755Z,101217.75
2022-12-06T03:15:44.756Z,101216.31
2022-12-06T03:18:17.414Z,101212.97
2022-12-06T03:20:48.637Z,101211.88
2022-12-06T03:23:16.988Z,101201.38
2022-12-06T03:25:41.187Z,101209.63
2022-12-06T03:28:07.547Z,101204.00
2022-12-06T03:30:34.409Z,101201.53
2022-12-06T03:32:58.547Z,101201.25
2022-12-06T03:35:27.365Z,101201.16
2022-12-06T03:38:05.655Z,101194.06
2022-12-06T03:40:33.539Z,101196.13
2022-12-06T03:42:57.747Z,101198.09
2022-12-06T03:45:23.225Z,101199.25
2022-12-06T03:47:56.599Z,101199.41
2022-12-06T03:50:25.725Z,101197.69
2022-12-06T03:52:49.408Z,101193.94
2022-12-06T03:55:14.573Z,101189.19
2022-12-06T03:57:38.363Z,101186.34
2022-12-06T04:00:02.201Z,101191.03
2022-12-06T04:02:34.958Z,101185.50
2022-12-06T04:04:58.510Z,101182.31
2022-12-06T04:07:22.033Z,101197.69
2022-12-06T04:09:56.455Z,101193.38
2022-12-06T04:12:38.665Z,101188.50
2022-12-06T04:15:02.258Z,101184.06
2022-12-06T04:17:43.319Z,101177.41
2022-12-06T04:20:08.964Z,101176.00
2022-12-06T04:22:50.016Z,101172.19
2022-12-06T04:25:13.612Z,101167.34
2022-12-06T04:27:56.253Z,101169.81
2022-12-06T04:30:37.863Z,101162.19
2022-12-06T04:33:18.875Z,101153.09
2022-12-06T04:35:59.575Z,101152.16
2022-12-06T04:38:42.144Z,101148.19
2022-12-06T04:41:05.989Z,101145.84
2022-12-06T04:43:44.728Z,101135.69
2022-12-06T04:46:08.393Z,101142.00
2022-12-06T04:48:31.930Z,101143.53
2022-12-06T04:50:55.884Z,101141.09
2022-12-06T04:53:19.773Z,101129.59
2022-12-06T04:55:47.533Z,101136.34
2022-12-06T04:58:11.050Z,101132.56
2022-12-06T05:00:36.009Z,101136.25
2022-12-06T05:02:59.548Z,101137.00
2022-12-06T05:05:23.149Z,101137.00
2022-12-06T05:07:46.752Z,101134.00
2022-12-06T05:10:11.057Z,101133.31
2022-12-06T05:12:34.560Z,101137.16
2022-12-06T05:14:58.178Z,101140.66
2022-12-06T05:17:23.058Z,101135.50
2022-12-06T05:19:46.642Z,101134.78
2022-12-06T05:22:10.145Z,101129.53
2022-12-06T05:24:34.081Z,101131.84
2022-12-06T05:26:57.621Z,101130.63
2022-12-06T05:29:21.186Z,101128.97
2022-12-06T05:31:44.811Z,101126.31
2022-12-06T05:34:11.666Z,101126.56
2022-12-06T05:36:35.383Z,101122.78
2022-12-06T05:38:59.148Z,101126.56
2022-12-06T05:41:24.117Z,101126.72
2022-12-06T05:43:47.921Z,101117.38
2022-12-06T05:46:11.476Z,101122.06
2022-12-06T05:48:35.658Z,101123.56
2022-12-06T05:51:00.665Z,101121.03
2022-12-06T05:53:24.344Z,101119.59
2022-12-06T05:55:48.168Z,101122.78
2022-12-06T05:58:12.217Z,101116.22
2022-12-06T06:00:36.635Z,101115.59
2022-12-06T06:03:00.388Z,101122.56
2022-12-06T06:05:24.158Z,101118.56
2022-12-06T06:07:49.206Z,101119.19
2022-12-06T06:10:13.177Z,101117.69
2022-12-06T06:12:36.783Z,101115.53
2022-12-06T06:15:00.372Z,101113.25
2022-12-06T06:17:24.313Z,101107.84
2022-12-06T06:19:51.423Z,101112.22
2022-12-06T06:22:15.333Z,101107.03
2022-12-06T06:24:43.077Z,101119.31
2022-12-06T06:27:07.047Z,101109.91
2022-12-06T06:29:31.055Z,101118.31
2022-12-06T06:31:54.933Z,101119.91
2022-12-06T06:34:18.541Z,101124.00
2022-12-06T06:36:45.763Z,101122.13
2022-12-06T06:39:09.682Z,101123.63
2022-12-06T06:41:34.662Z,101125.09
2022-12-06T06:43:58.169Z,101130.91
2022-12-06T06:46:21.817Z,101127.56
2022-12-06T06:48:45.396Z,101124.78
2022-12-06T06:51:11.412Z,101130.66
2022-12-06T06:53:35.195Z,101135.44
2022-12-06T06:55:59.137Z,101131.34
2022-12-06T06:58:24.463Z,101133.31
2022-12-06T07:00:48.043Z,101127.78
2022-12-06T07:03:16.222Z,101130.91
2022-12-06T07:05:39.848Z,101127.44
2022-12-06T07:08:04.231Z,101130.53
2022-12-06T07:10:27.834Z,101132.56
2022-12-06T07:12:54.115Z,101129.00
2022-12-06T07:15:19.285Z,101131.34
2022-12-06T07:17:42.827Z,101141.59
2022-12-06T07:20:08.239Z,101136.69
2022-12-06T07:22:32.195Z,101137.50
2022-12-06T07:24:55.771Z,101137.06
2022-12-06T07:27:19.296Z,101143.69
2022-12-06T07:29:42.928Z,101137.56
2022-12-06T07:32:08.237Z,101146.56
2022-12-06T07:34:32.489Z,101136.22
2022-12-06T07:36:56.009Z,101139.00
2022-12-06T07:39:19.674Z,101138.09
2022-12-06T07:42:00.412Z,101138.13
2022-12-06T07:45:01.354Z,101141.25
2022-12-06T07:47:27.198Z,101143.72
2022-12-06T07:49:53.763Z,101138.63
2022-12-06T07:52:17.397Z,101152.16
2022-12-06T07:54:41.539Z,101145.34
2022-12-06T07:57:05.231Z,101141.97
2022-12-06T07:59:29.015Z,101140.31
2022-12-06T08:01:53.192Z,101132.25
2022-12-06T08:04:18.560Z,101128.16
2022-12-06T08:06:42.317Z,101136.84
2022-12-06T08:09:06.760Z,101134.13
2022-12-06T08:11:30.379Z,101131.47
2022-12-06T08:13:53.874Z,101134.78
2022-12-06T08:16:17.799Z,101129.69
2022-12-06T08:18:41.714Z,101143.81
2022-12-06T08:21:07.395Z,101145.88
2022-12-06T08:23:34.451Z,101141.44
2022-12-06T08:25:59.560Z,101135.03
2022-12-06T08:28:23.059Z,101141.28
2022-12-06T08:30:47.091Z,101141.94
2022-12-06T08:33:10.608Z,101142.16
2022-12-06T08:35:37.710Z,101138.06
2022-12-06T08:38:02.590Z,101135.44
2022-12-06T08:40:26.256Z,101139.81
2022-12-06T08:42:49.846Z,101146.84
2022-12-06T08:45:13.513Z,101147.41
2022-12-06T08:47:37.085Z,101143.19
2022-12-06T08:50:01.105Z,101138.09
2022-12-06T08:52:24.899Z,101144.41
2022-12-06T08:54:50.017Z,101146.41
2022-12-06T08:57:13.533Z,101144.19
2022-12-06T08:59:37.976Z,101149.84
2022-12-06T09:02:01.632Z,101145.16
2022-12-06T09:04:25.412Z,101150.16
2022-12-06T09:06:48.992Z,101142.50
2022-12-06T09:09:14.340Z,101138.50
2022-12-06T09:11:40.270Z,101148.13
2022-12-06T09:14:04.418Z,101137.56
2022-12-06T09:16:28.056Z,101140.22
2022-12-06T09:18:52.895Z,101140.06
2022-12-06T09:21:19.280Z,101134.50
2022-12-06T09:23:43.177Z,101131.09
2022-12-06T09:26:08.666Z,101136.47
2022-12-06T09:28:36.827Z,101138.19
2022-12-06T09:31:00.477Z,101132.25
2022-12-06T09:33:24.445Z,101134.69
2022-12-06T09:35:48.601Z,101126.28
2022-12-06T09:38:13.162Z,101127.13
2022-12-06T09:40:45.957Z,101129.63
2022-12-06T09:43:28.679Z,101130.53
2022-12-06T09:46:12.727Z,101121.91
2022-12-06T09:48:56.866Z,101124.63
2022-12-06T09:51:37.140Z,101117.59
2022-12-06T09:54:19.868Z,101107.44
2022-12-06T09:56:52.024Z,101113.97
2022-12-06T09:59:23.612Z,101104.69
2022-12-06T10:02:13.076Z,101106.25
2022-12-06T10:05:24.855Z,101101.16
2022-12-06T10:08:00.201Z,101104.25
2022-12-06T10:10:40.490Z,101103.28
2022-12-06T10:13:13.393Z,101098.22
2022-12-06T10:15:54.413Z,101101.25
2022-12-06T10:18:36.458Z,101099.00
2022-12-06T10:21:14.041Z,101100.13
2022-12-06T10:24:01.678Z,101097.78
2022-12-06T10:26:33.274Z,101097.25
2022-12-06T10:29:09.954Z,101100.56
2022-12-06T10:31:46.768Z,101099.13
2022-12-06T10:34:22.029Z,101095.13
2022-12-06T10:37:00.750Z,101099.56
2022-12-06T10:39:30.167Z,101089.22
2022-12-06T10:42:02.860Z,101085.28
2022-12-06T10:44:34.524Z,101083.59
2022-12-06T10:47:05.059Z,101087.06
2022-12-06T10:49:41.739Z,101082.22
2022-12-06T10:52:18.877Z,101085.16
2022-12-06T10:54:49.526Z,101077.44
2022-12-06T10:57:18.860Z,101077.66
2022-12-06T10:59:51.824Z,101083.19
2022-12-06T11:02:26.064Z,101075.22
2022-12-06T11:04:52.222Z,101072.31
2022-12-06T11:07:20.650Z,101070.13
2022-12-06T11:09:47.970Z,101066.59
2022-12-06T11:12:31.225Z,101055.84
2022-12-06T11:15:04.584Z,101063.00
2022-12-06T11:17:31.477Z,101058.63
2022-12-06T11:20:03.210Z,101055.47
2022-12-06T11:22:39.516Z,101054.53
2022-12-06T11:25:15.668Z,101051.44
2022-12-06T11:27:47.617Z,101034.44
2022-12-06T11:30:20.350Z,101049.41
2022-12-06T11:32:45.400Z,101041.50
2022-12-06T11:35:18.022Z,101041.47
2022-12-06T11:37:44.520Z,101043.56
2022-12-06T11:40:21.736Z,101049.72
2022-12-06T11:42:45.376Z,101044.94
2022-12-06T11:45:17.026Z,101042.13
2022-12-06T11:47:40.653Z,101041.50
2022-12-06T11:50:10.056Z,101026.31
2022-12-06T11:52:44.153Z,101028.56
2022-12-06T11:55:17.482Z,101026.84
2022-12-06T11:57:48.137Z,101029.09
2022-12-06T12:00:17.704Z,101018.47
2022-12-06T12:02:42.441Z,101029.69
2022-12-06T12:05:12.501Z,101024.19
2022-12-06T12:07:39.678Z,101015.06
2022-12-06T12:10:25.615Z,101017.09
2022-12-06T12:13:08.105Z,101015.00
2022-12-06T12:15:31.814Z,101014.97
2022-12-06T12:17:58.590Z,101017.81
2022-12-06T12:20:28.209Z,101014.59
2022-12-06T12:23:01.205Z,101005.72
2022-12-06T12:25:28.429Z,101007.31
2022-12-06T12:27:54.621Z,101006.28
2022-12-06T12:30:32.092Z,101006.22
2022-12-06T12:33:21.802Z,101006.13
2022-12-06T12:35:48.203Z,101008.94
2022-12-06T12:38:37.580Z,101009.63
2022-12-06T12:41:03.782Z,101002.22
2022-12-06T12:43:31.496Z,101003.72
2022-12-06T12:46:18.971Z,101008.34
2022-12-06T12:48:44.969Z,101007.78
2022-12-06T12:51:33.460Z,101000.72
2022-12-06T12:54:02.295Z,100993.31
2022-12-06T12:56:27.142Z,100998.78
2022-12-06T12:58:54.478Z,100995.09
2022-12-06T13:01:37.466Z,101000.13
2022-12-06T13:04:06.072Z,101001.06
2022-12-06T13:06:37.319Z,101003.72
2022-12-06T13:09:05.801Z,100993.84
2022-12-06T13:11:30.897Z,100997.06
2022-12-06T13:13:56.808Z,100993.72
2022-12-06T13:16:30.068Z,100996.53
2022-12-06T13:18:59.413Z,100990.97
2022-12-06T13:21:26.725Z,100992.00
2022-12-06T13:23:54.149Z,100989.56
2022-12-06T13:26:26.756Z,100992.22
2022-12-06T13:28:55.907Z,100987.38
2022-12-06T13:31:24.385Z,100994.00
2022-12-06T13:33:53.837Z,100992.00
2022-12-06T13:36:18.714Z,100993.22
2022-12-06T13:38:43.642Z,100991.03
2022-12-06T13:41:08.672Z,100983.94
2022-12-06T13:44:00.121Z,100984.06
2022-12-06T13:46:28.234Z,100977.44
2022-12-06T13:48:53.061Z,100979.78
2022-12-06T13:51:50.619Z,100977.53
2022-12-06T13:54:38.183Z,100981.53
2022-12-06T13:57:22.126Z,100977.44
2022-12-06T13:59:47.183Z,100981.88
2022-12-06T14:02:53.771Z,100976.28
2022-12-06T14:06:07.346Z,100989.09
2022-12-06T14:08:39.466Z,100984.47
2022-12-06T14:11:19.514Z,100985.50
2022-12-06T14:13:45.351Z,100980.66
2022-12-06T14:16:17.791Z,100976.00
2022-12-06T14:18:43.280Z,100978.31
2022-12-06T14:21:06.950Z,100968.34
2022-12-06T14:23:33.836Z,100969.38
2022-12-06T14:26:23.941Z,100971.50
2022-12-06T14:28:48.437Z,100975.34
2022-12-06T14:31:38.771Z,100977.22
2022-12-06T14:34:02.454Z,100970.53
2022-12-06T14:36:31.554Z,100974.31
2022-12-06T14:39:03.065Z,100970.34
2022-12-06T14:41:55.515Z,100962.44
2022-12-06T14:44:20.932Z,100970.41
2022-12-06T14:46:47.696Z,100969.31
2022-12-06T14:49:35.632Z,100963.78
2022-12-06T14:51:59.286Z,100963.22
2022-12-06T14:54:36.079Z,100966.81
2022-12-06T14:57:00.084Z,100964.31
2022-12-06T15:00:13.098Z,100956.59
2022-12-06T15:02:24.511Z,100968.53
2022-12-06T15:04:48.186Z,100956.63
2022-12-06T15:07:41.702Z,100967.13
2022-12-06T15:10:23.375Z,100966.94
2022-12-06T15:12:59.329Z,100960.94
2022-12-06T15:15:41.967Z,100963.06
2022-12-06T15:18:22.075Z,100969.31
2022-12-06T15:20:45.759Z,100960.00
2022-12-06T15:23:49.493Z,100964.56
2022-12-06T15:26:14.018Z,100961.56
2022-12-06T15:28:38.186Z,100969.56
2022-12-06T15:31:01.837Z,100962.75
2022-12-06T15:33:27.321Z,100962.50
2022-12-06T15:35:51.819Z,100953.59
2022-12-06T15:38:15.445Z,100959.84
2022-12-06T15:40:43.941Z,100962.13
2022-12-06T15:43:17.063Z,100961.94
2022-12-06T15:45:40.720Z,100967.59
2022-12-06T15:48:04.327Z,100962.13
2022-12-06T15:50:29.362Z,100957.56
2022-12-06T15:52:52.987Z,100960.88
2022-12-06T15:55:18.578Z,100968.69
2022-12-06T15:57:42.087Z,100966.56
2022-12-06T16:00:07.575Z,100964.72
2022-12-06T16:02:31.194Z,100971.41
2022-12-06T16:04:54.793Z,100967.44
2022-12-06T16:07:19.822Z,100970.34
2022-12-06T16:09:43.440Z,100963.22
2022-12-06T16:12:07.928Z,100958.81
2022-12-06T16:14:33.063Z,100964.78
2022-12-06T16:16:57.974Z,100973.28
2022-12-06T16:19:22.851Z,100972.78
2022-12-06T16:21:57.964Z,100966.19
2022-12-06T16:24:23.236Z,100979.47
2022-12-06T16:26:48.896Z,100971.34
2022-12-06T16:29:17.142Z,100969.94
2022-12-06T16:31:41.326Z,100970.34
2022-12-06T16:34:05.323Z,100958.28
2022-12-06T16:36:32.033Z,100962.00
2022-12-06T16:38:57.747Z,100962.41
2022-12-06T16:41:26.065Z,100956.22
2022-12-06T16:43:50.200Z,100960.94
2022-12-06T16:46:33.995Z,100963.69
2022-12-06T16:49:22.275Z,100960.06
2022-12-06T16:51:44.056Z,100963.16
2022-12-06T16:54:07.880Z,100965.56
2022-12-06T16:56:35.292Z,100973.75
2022-12-06T16:59:01.306Z,100971.19
2022-12-06T17:01:27.308Z,100965.94
2022-12-06T17:03:56.324Z,100971.25
2022-12-06T17:06:19.960Z,100975.41
2022-12-06T17:08:43.487Z,100974.13
2022-12-06T17:11:21.190Z,100970.38
2022-12-06T17:13:46.152Z,100975.53
2022-12-06T17:16:10.291Z,100971.66
2022-12-06T17:18:33.874Z,100973.38
2022-12-06T17:20:57.384Z,100972.81
2022-12-06T17:23:20.951Z,100974.91
2022-12-06T17:25:44.465Z,100975.94
2022-12-06T17:28:08.071Z,100981.50
2022-12-06T17:30:33.735Z,100977.25
2022-12-06T17:32:57.282Z,100976.78
2022-12-06T17:35:20.812Z,100976.53
2022-12-06T17:37:44.395Z,100978.56
2022-12-06T17:40:09.952Z,100977.31
2022-12-06T17:42:50.688Z,100978.19
2022-12-06T17:45:14.286Z,100980.78
2022-12-06T17:47:39.958Z,100987.69
2022-12-06T17:50:04.507Z,100987.31
2022-12-06T17:52:28.327Z,100983.00
2022-12-06T17:54:52.013Z,100982.09
2022-12-06T17:57:18.252Z,100982.38
2022-12-06T17:59:42.118Z,100979.31
2022-12-06T18:02:15.135Z,100984.59
2022-12-06T18:04:40.481Z,100978.19
2022-12-06T18:07:04.007Z,100984.66
2022-12-06T18:09:27.802Z,100979.53
2022-12-06T18:11:51.791Z,100987.25
2022-12-06T18:14:15.596Z,100978.25
2022-12-06T18:16:41.848Z,100980.03
2022-12-06T18:19:08.888Z,100985.47
2022-12-06T18:21:36.446Z,100983.56
2022-12-06T18:24:21.054Z,100981.53
2022-12-06T18:26:43.804Z,100966.28
2022-12-06T18:29:09.345Z,100977.56
2022-12-06T18:31:35.078Z,100979.09
2022-12-06T18:33:59.950Z,100978.84
2022-12-06T18:36:23.554Z,100978.94
2022-12-06T18:38:49.425Z,100976.91
2022-12-06T18:41:15.426Z,100974.19
2022-12-06T18:43:39.310Z,100976.41
2022-12-06T18:46:05.654Z,100970.59
2022-12-06T18:48:29.953Z,100971.88
2022-12-06T18:50:53.690Z,100975.22
2022-12-06T18:53:17.967Z,100968.66
2022-12-06T18:55:44.911Z,100966.84
2022-12-06T18:58:08.429Z,100967.09
2022-12-06T19:00:32.018Z,100963.94
2022-12-06T19:02:55.549Z,100964.38
2022-12-06T19:05:33.023Z,100961.72
2022-12-06T19:08:03.150Z,100966.53
2022-12-06T19:10:26.981Z,100959.56
2022-12-06T19:12:51.981Z,100958.88
2022-12-06T19:15:15.727Z,100961.63
2022-12-06T19:17:43.120Z,100959.41
2022-12-06T19:20:08.522Z,100964.22
2022-12-06T19:22:32.286Z,100961.47
2022-12-06T19:24:55.781Z,100954.19
2022-12-06T19:27:20.786Z,100957.44
2022-12-06T19:29:45.899Z,100954.88
2022-12-06T19:32:11.305Z,100954.94
2022-12-06T19:34:34.831Z,100963.88
2022-12-06T19:36:58.455Z,100959.25
2022-12-06T19:39:22.987Z,100955.34
2022-12-06T19:42:04.354Z,100953.66
2022-12-06T19:44:28.759Z,100954.78
2022-12-06T19:46:53.974Z,100948.06
2022-12-06T19:49:20.853Z,100952.16
2022-12-06T19:51:47.247Z,100954.47
2022-12-06T19:54:13.230Z,100951.16
2022-12-06T19:56:38.697Z,100953.16
2022-12-06T19:59:11.313Z,100944.81
2022-12-06T20:01:35.214Z,100944.03
2022-12-06T20:04:00.260Z,100948.50
2022-12-06T20:06:26.386Z,100942.41
2022-12-06T20:08:51.431Z,100942.78
2022-12-06T20:11:35.234Z,100942.41
2022-12-06T20:14:01.550Z,100938.31
2022-12-06T20:16:25.239Z,100942.41
2022-12-06T20:18:48.985Z,100932.09
2022-12-06T20:21:14.423Z,100939.66
2022-12-06T20:23:38.320Z,100940.81
2022-12-06T20:26:02.253Z,100946.34
2022-12-06T20:28:25.947Z,100939.75
2022-12-06T20:30:49.606Z,100939.84
2022-12-06T20:33:13.734Z,100942.25
2022-12-06T20:35:38.720Z,100938.81
2022-12-06T20:38:03.934Z,100939.31
2022-12-06T20:40:31.374Z,100930.91
2022-12-06T20:42:55.529Z,100930.91
2022-12-06T20:45:20.588Z,100926.28
2022-12-06T20:47:44.472Z,100927.47
2022-12-06T20:50:09.614Z,100926.28
2022-12-06T20:52:33.370Z,100922.56
2022-12-06T20:54:58.288Z,100923.84
2022-12-06T20:57:22.070Z,100918.00
2022-12-06T20:59:45.570Z,100919.13
2022-12-06T21:02:12.131Z,100918.03
2022-12-06T21:04:35.697Z,100913.22
2022-12-06T21:07:00.038Z,100915.28
2022-12-06T21:09:23.956Z,100918.28
2022-12-06T21:11:49.369Z,100912.84
2022-12-06T21:14:14.805Z,100914.53
2022-12-06T21:16:38.610Z,100909.09
2022-12-06T21:19:05.413Z,100908.75
2022-12-06T21:21:34.506Z,100905.31
2022-12-06T21:24:00.829Z,100917.75
2022-12-06T21:26:24.421Z,100913.56
2022-12-06T21:28:49.492Z,100908.38
2022-12-06T21:31:13.197Z,100913.22
2022-12-06T21:33:36.872Z,100904.44
2022-12-06T21:36:04.120Z,100908.41
2022-12-06T21:38:30.688Z,100903.59
2022-12-06T21:40:58.684Z,100907.97
2022-12-06T21:43:25.087Z,100898.78
2022-12-06T21:45:50.072Z,100909.53
2022-12-06T21:48:13.871Z,100909.88
2022-12-06T21:50:37.958Z,100916.47
2022-12-06T21:53:01.719Z,100915.78
2022-12-06T21:55:25.570Z,100915.19
2022-12-06T21:57:49.509Z,100917.59
2022-12-06T22:00:15.506Z,100916.91
2022-12-06T22:02:40.581Z,100910.81
2022-12-06T22:05:04.223Z,100918.53
2022-12-06T22:07:27.864Z,100918.72
2022-12-06T22:09:52.334Z,100919.03
2022-12-06T22:12:16.447Z,100921.28
2022-12-06T22:14:39.944Z,100917.16
2022-12-06T22:17:03.846Z,100915.34
2022-12-06T22:19:29.084Z,100919.81
2022-12-06T22:21:55.632Z,100912.88
2022-12-06T22:24:19.164Z,100912.13
2022-12-06T22:26:43.006Z,100915.22
2022-12-06T22:29:06.837Z,100908.03
2022-12-06T22:31:33.630Z,100909.25
2022-12-06T22:33:58.907Z,100907.00
2022-12-06T22:36:24.843Z,100899.28
2022-12-06T22:38:50.010Z,100902.63
2022-12-06T22:41:13.574Z,100903.06
2022-12-06T22:43:38.115Z,100912.22
2022-12-06T22:46:06.967Z,100902.50
2022-12-06T22:48:31.082Z,100900.09
2022-12-06T22:50:54.700Z,100895.13
2022-12-06T22:53:19.577Z,100894.44
2022-12-06T22:55:43.154Z,100892.72
2022-12-06T22:58:06.688Z,100896.59
2022-12-06T23:00:30.486Z,100898.00
2022-12-06T23:02:54.056Z,100899.25
2022-12-06T23:05:17.680Z,100895.47
2022-12-06T23:07:41.824Z,100882.66
2022-12-06T23:10:08.887Z,100880.34
2022-12-06T23:12:32.515Z,100880.69
2022-12-06T23:14:56.072Z,100881.81
2022-12-06T23:17:19.727Z,100881.72
2022-12-06T23:19:43.342Z,100882.03
2022-12-06T23:22:06.861Z,100877.25
2022-12-06T23:24:30.490Z,100879.81
2022-12-06T23:26:58.128Z,100882.72
2022-12-06T23:29:22.153Z,100880.13
2022-12-06T23:31:47.705Z,100882.66
2022-12-06T23:34:15.029Z,100877.28
2022-12-06T23:36:38.577Z,100876.38
2022-12-06T23:39:02.197Z,100879.44
2022-12-06T23:41:29.026Z,100875.34
2022-12-06T23:43:54.953Z,100870.50
2022-12-06T23:46:22.539Z,100875.34
2022-12-06T23:48:46.724Z,100878.94
2022-12-06T23:51:13.061Z,100880.81
2022-12-06T23:53:36.989Z,100876.56
2022-12-06T23:56:00.956Z,100882.88
2022-12-06T23:58:24.530Z,100874.84
